Time;durP1;ratioP1;P1;durP2;ratioP2;P2;SDS_P1;SDS_P2;PMS_P1;PMS_P2;Temp;Humidity;BMP_temperature;BMP_pressure;BME280_temperature;BME280_humidity;BME280_pressure;Samples;Min_cycle;Max_cycle;Signal;HPM_P1;HPM_P2
2023/02/15 00:08:49;;;;;;;29.70;23.40;;;;;;;1.96;99.97;101185.27;450871;1251;143008;-67
2023/02/15 00:18:54;;;;;;;30.30;21.80;;;;;;;1.97;100.00;101176.44;446033;1252;142883;-66
2023/02/15 00:29:01;;;;;;;26.90;22.00;;;;;;;2.03;99.98;101169.00;439139;1251;143174;-68
2023/02/15 00:39:08;;;;;;;28.50;22.50;;;;;;;2.03;99.98;101158.30;435523;1253;142931;-67
2023/02/15 00:49:14;;;;;;;31.10;22.00;;;;;;;2.03;100.00;101147.41;436394;1250;142170;-68
2023/02/15 00:59:20;;;;;;;31.20;22.30;;;;;;;2.02;99.99;101141.55;438466;1251;142821;-66
2023/02/15 01:09:26;;;;;;;35.50;25.00;;;;;;;1.99;100.00;101142.23;436131;1253;143444;-67
2023/02/15 01:19:35;;;;;;;29.50;23.80;;;;;;;2.01;99.93;101132.04;438645;1249;142475;-68
2023/02/15 01:29:41;;;;;;;34.10;25.60;;;;;;;1.99;99.99;101126.35;437698;1251;144617;-68
2023/02/15 01:39:46;;;;;;;36.50;26.10;;;;;;;1.97;99.92;101117.90;436188;1251;144952;-66
2023/02/15 01:50:01;;;;;;;36.10;25.50;;;;;;;1.94;100.00;101107.36;436122;1251;143167;-66
2023/02/15 02:00:09;;;;;;;35.30;24.30;;;;;;;1.90;100.00;101099.44;441565;1250;142122;-66
2023/02/15 02:10:18;;;;;;;32.60;26.10;;;;;;;1.90;100.00;101084.93;435274;1251;141883;-67
2023/02/15 02:20:48;;;;;;;37.60;26.60;;;;;;;1.88;100.00;101068.35;434815;1249;141905;-67
2023/02/15 02:31:16;;;;;;;36.80;26.40;;;;;;;1.85;100.00;101055.25;439360;1250;141992;-66
2023/02/15 02:41:33;;;;;;;34.40;24.80;;;;;;;1.83;100.00;101054.55;437790;1249;142054;-67
2023/02/15 02:51:38;;;;;;;42.70;28.20;;;;;;;1.79;100.00;101053.38;437905;1251;164700;-68
2023/02/15 03:01:50;;;;;;;28.40;20.70;;;;;;;1.79;100.00;101058.20;443659;1249;142455;-66
2023/02/15 03:11:57;;;;;;;30.00;22.20;;;;;;;1.83;100.00;101056.47;435611;1252;142002;-69
2023/02/15 03:22:08;;;;;;;33.30;26.10;;;;;;;1.85;100.00;101056.10;434116;1251;142365;-67
2023/02/15 03:32:18;;;;;;;36.70;26.40;;;;;;;1.83;100.00;101060.08;435604;1250;141954;-67
2023/02/15 03:42:31;;;;;;;32.50;24.00;;;;;;;1.84;100.00;101063.89;435583;1251;142427;-66
2023/02/15 03:52:38;;;;;;;20.70;16.60;;;;;;;1.86;100.00;101058.70;434891;1251;141404;-68
2023/02/15 04:03:00;;;;;;;19.20;14.80;;;;;;;1.90;100.00;101059.54;435813;1251;142470;-67
2023/02/15 04:13:06;;;;;;;21.50;15.20;;;;;;;1.96;99.93;101061.41;439287;1249;142077;-67
2023/02/15 04:33:36;;;;;;;22.30;17.60;;;;;;;2.03;99.91;101052.92;437824;1250;142802;-67
2023/02/15 04:43:40;;;;;;;;;;;;;;;2.02;99.99;101050.52;435138;1251;141256;-68
2023/02/15 04:53:46;;;;;;;18.50;13.80;;;;;;;2.01;99.91;101039.45;434979;1250;128024;-66
2023/02/15 05:03:52;;;;;;;21.90;18.40;;;;;;;2.00;99.69;101038.77;436253;1249;142267;-67
2023/02/15 05:13:58;;;;;;;21.40;15.40;;;;;;;1.95;99.72;101038.63;436291;1250;141274;-66
2023/02/15 05:28:19;;;;;;;17.80;13.90;;;;;;;1.92;99.53;101039.50;435871;1250;141989;-67
2023/02/15 05:34:30;;;;;;;19.20;15.50;;;;;;;1.92;99.34;101043.83;440276;1250;142346;-68
2023/02/15 05:44:36;;;;;;;20.80;17.40;;;;;;;1.89;99.16;101044.52;441157;1250;152454;-67
2023/02/15 05:54:42;;;;;;;24.70;19.80;;;;;;;1.88;99.19;101045.21;433909;1253;141745;-67
2023/02/15 06:04:48;;;;;;;25.70;20.50;;;;;;;1.84;99.27;101040.05;434769;1251;141338;-67
2023/02/15 06:14:54;;;;;;;27.50;20.20;;;;;;;1.84;99.05;101041.44;438236;1249;143409;-68
2023/02/15 06:24:59;;;;;;;31.60;22.10;;;;;;;1.82;98.97;101040.59;438652;1250;164596;-67
2023/02/15 06:35:06;;;;;;;23.20;19.30;;;;;;;1.89;99.16;101042.27;435284;1250;142283;-65
2023/02/15 06:45:11;;;;;;;;;;;;;;;1.93;99.06;101044.50;448906;1250;142067;-66
2023/02/15 06:55:17;;;;;;;26.60;20.90;;;;;;;1.93;98.89;101045.54;439524;1250;128901;-68
2023/02/15 07:05:23;;;;;;;26.20;19.40;;;;;;;2.00;98.70;101045.86;434269;1251;142345;-66
2023/02/15 07:15:29;;;;;;;24.70;19.70;;;;;;;2.03;98.78;101044.45;435648;1250;142198;-66
2023/02/15 07:25:35;;;;;;;21.90;18.40;;;;;;;1.94;98.55;101038.63;436624;1250;209853;-66
2023/02/15 07:35:49;;;;;;;29.40;20.10;;;;;;;1.91;98.50;101034.33;434662;1253;141223;-66
2023/02/15 07:45:54;;;;;;;36.70;25.40;;;;;;;1.99;98.95;101029.27;435316;1250;142953;-67
2023/02/15 07:56:02;;;;;;;32.90;23.00;;;;;;;2.05;98.80;101025.78;434170;1251;142004;-67
2023/02/15 08:06:09;;;;;;;32.10;23.20;;;;;;;2.05;98.61;101019.06;437703;1250;141880;-68
2023/02/15 08:16:15;;;;;;;31.40;22.60;;;;;;;2.13;98.70;101004.84;440259;1250;142956;-65
2023/02/15 08:26:22;;;;;;;35.40;24.60;;;;;;;2.15;98.28;100995.15;436058;1250;142031;-66
2023/02/15 08:36:31;;;;;;;36.30;24.40;;;;;;;2.19;98.62;100981.65;436267;1249;143066;-67
2023/02/15 08:46:39;;;;;;;31.10;22.80;;;;;;;2.23;98.45;100969.70;436526;1249;197700;-66
2023/02/15 08:56:45;;;;;;;36.40;26.50;;;;;;;2.24;98.56;100961.39;438082;1249;142130;-66
2023/02/15 09:06:52;;;;;;;38.10;27.10;;;;;;;2.31;98.52;100957.20;435735;1250;143788;-69
2023/02/15 09:16:58;;;;;;;44.70;29.80;;;;;;;2.46;98.72;100947.23;437530;1250;142020;-68
2023/02/15 09:27:04;;;;;;;33.60;24.90;;;;;;;2.58;98.44;100944.71;438390;1251;141436;-68
2023/02/15 09:37:10;;;;;;;37.50;25.10;;;;;;;2.46;98.17;100943.41;434356;1251;142936;-66
2023/02/15 09:47:39;;;;;;;34.30;24.90;;;;;;;2.41;98.63;100936.03;434901;1251;141647;-66
2023/02/15 09:57:54;;;;;;;33.30;22.40;;;;;;;2.46;98.34;100927.86;434937;1250;143022;-68
2023/02/15 10:08:34;;;;;;;29.70;22.70;;;;;;;2.54;98.36;100927.63;434502;1251;141976;-66
2023/02/15 10:18:59;;;;;;;29.80;20.60;;;;;;;2.60;98.25;100928.79;434890;1253;142420;-66
2023/02/15 10:29:09;;;;;;;35.00;23.30;;;;;;;2.57;98.07;100924.14;436281;1253;142356;-67
2023/02/15 10:39:26;;;;;;;40.00;25.30;;;;;;;2.57;98.28;100912.73;435845;1250;142097;-66
2023/02/15 10:49:40;;;;;;;;;;;;;;;2.53;98.28;100909.65;434648;1250;142553;-68
2023/02/15 11:00:06;;;;;;;34.00;23.80;;;;;;;2.42;98.07;100897.30;438472;1249;187011;-68
2023/02/15 11:10:27;;;;;;;40.70;26.70;;;;;;;2.60;98.67;100879.33;436339;1253;141858;-66
2023/02/15 11:20:38;;;;;;;31.40;22.10;;;;;;;2.63;98.18;100872.21;435815;1253;142332;-66
2023/02/15 11:30:51;;;;;;;39.50;24.60;;;;;;;2.73;98.29;100857.41;434797;1253;141673;-67
2023/02/15 11:41:00;;;;;;;38.60;25.70;;;;;;;2.75;98.02;100851.84;436791;1249;141526;-67
2023/02/15 11:51:12;;;;;;;42.00;28.80;;;;;;;2.68;97.68;100829.45;435618;1253;143411;-68
2023/02/15 12:01:24;;;;;;;40.00;27.40;;;;;;;2.73;98.32;100817.45;435844;1252;143198;-67
2023/02/15 12:11:35;;;;;;;40.70;27.40;;;;;;;2.88;97.76;100806.89;438242;1251;141929;-68
2023/02/15 12:21:44;;;;;;;40.30;28.00;;;;;;;2.92;98.10;100804.77;438269;1251;142402;-66
2023/02/15 12:31:52;;;;;;;38.80;26.30;;;;;;;2.90;97.62;100796.49;434558;1253;142987;-66
2023/02/15 12:42:04;;;;;;;45.30;30.20;;;;;;;2.85;97.48;100788.95;441516;1249;141682;-68
2023/02/15 12:52:26;;;;;;;41.50;28.60;;;;;;;2.73;97.64;100776.48;434635;1249;143088;-67
2023/02/15 13:02:41;;;;;;;45.70;28.80;;;;;;;2.66;97.76;100765.67;435817;1253;142283;-67
2023/02/15 13:12:53;;;;;;;44.60;26.80;;;;;;;2.70;97.90;100747.64;437106;1253;141716;-67
2023/02/15 13:23:05;;;;;;;43.10;27.90;;;;;;;2.68;98.09;100744.04;438650;1250;142016;-67
2023/02/15 13:33:17;;;;;;;41.80;27.80;;;;;;;2.72;98.09;100738.63;437112;1251;141487;-67
2023/02/15 13:43:34;;;;;;;43.40;30.70;;;;;;;2.65;97.75;100728.67;435101;1251;145362;-68
2023/02/15 13:53:55;;;;;;;39.20;26.80;;;;;;;2.61;98.23;100725.62;435597;1251;141618;-67
2023/02/15 14:04:28;;;;;;;47.80;30.80;;;;;;;2.55;98.08;100719.14;437796;1252;142244;-67
2023/02/15 14:15:01;;;;;;;57.30;29.70;;;;;;;2.56;98.04;100712.71;437983;1250;142171;-67
2023/02/15 14:25:24;;;;;;;44.80;28.40;;;;;;;2.57;98.39;100707.86;434294;1253;142226;-68
2023/02/15 14:35:31;;;;;;;40.80;28.00;;;;;;;2.72;98.34;100699.55;434628;1253;142775;-67
2023/02/15 14:45:48;;;;;;;41.80;28.50;;;;;;;2.72;97.89;100702.65;438159;1251;153117;-68
2023/02/15 15:06:30;;;;;;;40.50;27.30;;;;;;;2.51;98.01;100689.80;430405;1296;600995;-67
2023/02/15 15:16:54;;;;;;;41.80;29.80;;;;;;;2.45;98.04;100677.93;446292;1264;194289;-68
2023/02/15 15:27:31;;;;;;;42.50;28.50;;;;;;;2.30;97.84;100671.04;444250;1267;142600;-68
2023/02/15 15:37:59;;;;;;;42.50;27.60;;;;;;;2.00;97.86;100659.81;446141;1265;208991;-68
2023/02/15 15:48:27;;;;;;;43.30;28.40;;;;;;;1.69;98.30;100653.07;446501;1265;143446;-67
2023/02/15 15:58:34;;;;;;;46.20;30.90;;;;;;;1.53;98.76;100649.60;445951;1264;142066;-67
2023/02/15 16:08:41;;;;;;;39.80;26.30;;;;;;;1.20;98.96;100634.20;441106;1265;141620;-67
2023/02/15 16:18:48;;;;;;;52.80;34.10;;;;;;;0.76;99.51;100622.63;444347;1267;142356;-68
2023/02/15 16:28:55;;;;;;;49.60;32.40;;;;;;;0.44;99.97;100628.01;442430;1265;141172;-68
2023/02/15 16:39:17;;;;;;;45.00;30.20;;;;;;;0.18;100.00;100611.25;442917;1265;146391;-68
2023/02/15 16:49:26;;;;;;;52.80;32.00;;;;;;;0.01;100.00;100596.70;439761;1266;144535;-67
2023/02/15 16:59:39;;;;;;;57.10;33.10;;;;;;;-0.15;100.00;100593.14;430278;1271;141956;-66
2023/02/15 17:09:53;;;;;;;60.80;34.10;;;;;;;-0.29;100.00;100594.73;437264;1266;143434;-67
2023/02/15 17:19:59;;;;;;;56.50;38.10;;;;;;;-0.40;100.00;100588.91;437872;1266;142385;-68
2023/02/15 17:30:16;;;;;;;51.60;33.80;;;;;;;-0.48;100.00;100579.48;435586;1266;145580;-66
2023/02/15 17:40:25;;;;;;;53.20;34.30;;;;;;;-0.57;100.00;100573.65;438982;1267;142460;-66
2023/02/15 17:50:31;;;;;;;53.70;34.60;;;;;;;-0.63;100.00;100562.81;441763;1266;141978;-66
2023/02/15 18:21:25;;;;;;;58.60;36.00;;;;;;;-0.79;100.00;100535.86;431226;1263;129368;-68
2023/02/15 18:31:30;;;;;;;;;;;;;;;-0.82;100.00;100543.25;431306;1259;142773;-67
2023/02/15 18:41:36;;;;;;;63.40;38.30;;;;;;;-0.86;100.00;100534.33;433991;1261;139718;-68
2023/02/15 18:51:42;;;;;;;59.10;35.10;;;;;;;-0.88;100.00;100525.04;434758;1263;142523;-67
2023/02/15 19:01:48;;;;;;;59.20;38.80;;;;;;;-0.93;100.00;100516.64;431453;1261;142133;-68
2023/02/15 19:11:55;;;;;;;60.30;36.80;;;;;;;-1.01;100.00;100509.25;440158;1259;142326;-69
2023/02/15 19:22:03;;;;;;;61.20;37.10;;;;;;;-1.07;100.00;100503.25;447238;1262;144014;-69
2023/02/15 19:32:11;;;;;;;64.30;39.90;;;;;;;-1.10;100.00;100486.23;448042;1259;143787;-69
2023/02/15 19:42:24;;;;;;;58.40;36.00;;;;;;;-1.11;100.00;100481.77;448052;1260;143109;-68
2023/02/15 19:52:29;;;;;;;62.10;39.60;;;;;;;-1.15;100.00;100474.90;447270;1259;142686;-69
2023/02/15 20:02:35;;;;;;;60.90;38.40;;;;;;;-1.20;100.00;100465.63;441621;1257;142750;-68
2023/02/15 20:12:41;;;;;;;61.70;38.70;;;;;;;-1.26;100.00;100454.81;442124;1259;143322;-69
2023/02/15 20:22:49;;;;;;;70.60;40.40;;;;;;;-1.34;100.00;100451.73;433025;1260;142739;-70
2023/02/15 20:32:55;;;;;;;70.90;42.60;;;;;;;-1.40;100.00;100446.59;435226;1259;142154;-70
2023/02/15 20:43:02;;;;;;;71.80;43.00;;;;;;;-1.46;100.00;100436.30;434631;1260;142505;-69
2023/02/15 20:53:09;;;;;;;;;;;;;;;-1.52;100.00;100423.93;435375;1259;143542;-69
2023/02/15 21:03:21;;;;;;;69.10;44.00;;;;;;;-1.57;100.00;100420.67;435784;1257;128177;-69
2023/02/15 21:13:30;;;;;;;68.80;40.30;;;;;;;-1.61;100.00;100415.87;442460;1258;141492;-68
2023/02/15 21:23:40;;;;;;;71.40;44.50;;;;;;;-1.59;100.00;100413.12;432812;1262;142923;-68
2023/02/15 21:33:46;;;;;;;65.60;40.20;;;;;;;-1.57;100.00;100400.05;441149;1258;144100;-69
2023/02/15 21:54:17;;;;;;;68.00;40.30;;;;;;;-1.62;100.00;100388.56;442495;1260;141271;-69
2023/02/15 22:04:25;;;;;;;72.90;45.40;;;;;;;-1.68;100.00;100380.67;447310;1259;146094;-69
2023/02/15 22:14:39;;;;;;;71.30;44.00;;;;;;;-1.68;100.00;100374.33;440040;1261;142553;-70
2023/02/15 22:24:45;;;;;;;73.40;41.60;;;;;;;-1.69;100.00;100360.06;434738;1262;143506;-69
2023/02/15 22:34:52;;;;;;;72.30;41.30;;;;;;;-1.73;100.00;100348.75;440619;1260;141852;-69
2023/02/15 22:44:59;;;;;;;72.50;43.60;;;;;;;-1.79;100.00;100340.17;446837;1262;142746;-69
2023/02/15 22:55:05;;;;;;;70.20;40.70;;;;;;;-1.81;100.00;100332.45;443962;1260;144103;-69
2023/02/15 23:05:18;;;;;;;76.10;43.50;;;;;;;-1.90;100.00;100335.20;448041;1260;141696;-68
2023/02/15 23:15:24;;;;;;;78.10;44.70;;;;;;;-2.00;100.00;100325.60;450592;1248;142935;-69
2023/02/15 23:25:30;;;;;;;82.20;50.90;;;;;;;-2.10;100.00;100316.85;437804;1251;143982;-69
2023/02/15 23:35:36;;;;;;;79.50;46.30;;;;;;;-2.26;100.00;100306.56;437870;1250;145678;-68
2023/02/15 23:45:41;;;;;;;86.50;49.90;;;;;;;-2.36;100.00;100304.15;449199;1250;143851;-68
2023/02/15 23:55:47;;;;;;;84.00;48.90;;;;;;;-2.46;100.00;100292.67;451350;1250;141786;-68
